sensor_id;sensor_type;location;lat;lon;timestamp;P1;durP1;ratioP1;P2;durP2;ratioP2
55314;SDS011;41619;42.816;23.226;2023-02-15T14:37:24;44.53;;;30.23;;
55314;SDS011;41619;42.816;23.226;2023-02-15T14:40:27;48.88;;;29.75;;
55314;SDS011;41619;42.816;23.226;2023-02-15T14:46:18;50.03;;;31.42;;
55314;SDS011;41619;42.816;23.226;2023-02-15T14:48:46;54.10;;;33.78;;
55314;SDS011;41619;42.816;23.226;2023-02-15T14:53:58;53.60;;;32.47;;
55314;SDS011;41619;42.816;23.226;2023-02-15T14:56:24;56.35;;;33.47;;
55314;SDS011;41619;42.816;23.226;2023-02-15T15:01:29;62.22;;;36.10;;
55314;SDS011;41619;42.816;23.226;2023-02-15T15:03:58;53.58;;;32.22;;
55314;SDS011;41619;42.816;23.226;2023-02-15T15:06:35;58.35;;;34.58;;
55314;SDS011;41619;42.816;23.226;2023-02-15T15:11:44;87.00;;;47.90;;
55314;SDS011;41619;42.816;23.226;2023-02-15T15:16:56;83.57;;;44.55;;
55314;SDS011;41619;42.816;23.226;2023-02-15T15:22:21;77.70;;;46.08;;
55314;SDS011;41619;42.816;23.226;2023-02-15T15:32:39;98.63;;;48.87;;
55314;SDS011;41619;42.816;23.226;2023-02-15T15:41:18;108.53;;;53.10;;
55314;SDS011;41619;42.816;23.226;2023-02-15T15:49:30;71.57;;;41.72;;
55314;SDS011;41619;42.816;23.226;2023-02-15T15:52:01;81.57;;;42.20;;
55314;SDS011;41619;42.816;23.226;2023-02-15T15:54:33;85.75;;;44.25;;
55314;SDS011;41619;42.816;23.226;2023-02-15T15:57:00;92.38;;;47.42;;
55314;SDS011;41619;42.816;23.226;2023-02-15T15:59:32;111.70;;;52.08;;
55314;SDS011;41619;42.816;23.226;2023-02-15T16:02:11;104.70;;;48.92;;
55314;SDS011;41619;42.816;23.226;2023-02-15T16:04:40;137.75;;;58.10;;
55314;SDS011;41619;42.816;23.226;2023-02-15T16:07:40;295.05;;;101.40;;
55314;SDS011;41619;42.816;23.226;2023-02-15T16:09:59;353.85;;;112.35;;
55314;SDS011;41619;42.816;23.226;2023-02-15T16:12:29;240.32;;;81.00;;
55314;SDS011;41619;42.816;23.226;2023-02-15T16:14:57;339.40;;;99.82;;
55314;SDS011;41619;42.816;23.226;2023-02-15T16:17:28;371.90;;;110.22;;
55314;SDS011;41619;42.816;23.226;2023-02-15T16:20:06;184.30;;;69.07;;
55314;SDS011;41619;42.816;23.226;2023-02-15T16:22:41;450.85;;;138.73;;
55314;SDS011;41619;42.816;23.226;2023-02-15T16:27:44;652.13;;;208.75;;
55314;SDS011;41619;42.816;23.226;2023-02-15T16:30:31;664.10;;;216.90;;
55314;SDS011;41619;42.816;23.226;2023-02-15T16:33:11;334.33;;;107.45;;
55314;SDS011;41619;42.816;23.226;2023-02-15T16:38:04;657.63;;;205.45;;
55314;SDS011;41619;42.816;23.226;2023-02-15T16:43:18;367.23;;;137.73;;
55314;SDS011;41619;42.816;23.226;2023-02-15T16:48:23;293.98;;;122.85;;
55314;SDS011;41619;42.816;23.226;2023-02-15T16:50:51;240.48;;;105.47;;
55314;SDS011;41619;42.816;23.226;2023-02-15T16:53:20;262.85;;;102.97;;
55314;SDS011;41619;42.816;23.226;2023-02-15T16:55:50;199.23;;;90.50;;
55314;SDS011;41619;42.816;23.226;2023-02-15T16:58:21;195.55;;;80.32;;
55314;SDS011;41619;42.816;23.226;2023-02-15T18:22:45;186.73;;;74.15;;
55314;SDS011;41619;42.816;23.226;2023-02-15T18:25:11;176.80;;;75.07;;
55314;SDS011;41619;42.816;23.226;2023-02-15T18:27:39;174.35;;;73.38;;
55314;SDS011;41619;42.816;23.226;2023-02-15T18:30:05;174.00;;;70.03;;
55314;SDS011;41619;42.816;23.226;2023-02-15T18:32:33;137.87;;;60.60;;
55314;SDS011;41619;42.816;23.226;2023-02-15T18:35:02;133.65;;;60.92;;
55314;SDS011;41619;42.816;23.226;2023-02-15T18:37:29;136.90;;;62.97;;
55314;SDS011;41619;42.816;23.226;2023-02-15T18:39:57;152.32;;;67.47;;
55314;SDS011;41619;42.816;23.226;2023-02-15T18:42:28;125.18;;;56.65;;
55314;SDS011;41619;42.816;23.226;2023-02-15T18:44:56;130.13;;;55.83;;
55314;SDS011;41619;42.816;23.226;2023-02-15T18:47:24;123.88;;;54.78;;
55314;SDS011;41619;42.816;23.226;2023-02-15T18:49:50;142.63;;;65.70;;
55314;SDS011;41619;42.816;23.226;2023-02-15T18:52:17;176.85;;;82.25;;
55314;SDS011;41619;42.816;23.226;2023-02-15T18:54:44;176.32;;;85.05;;
55314;SDS011;41619;42.816;23.226;2023-02-15T18:57:14;188.10;;;83.55;;
55314;SDS011;41619;42.816;23.226;2023-02-15T18:59:40;157.50;;;77.13;;
55314;SDS011;41619;42.816;23.226;2023-02-15T19:02:12;171.68;;;77.97;;
55314;SDS011;41619;42.816;23.226;2023-02-15T19:04:39;269.88;;;95.78;;
55314;SDS011;41619;42.816;23.226;2023-02-15T19:07:05;354.13;;;110.40;;
55314;SDS011;41619;42.816;23.226;2023-02-15T19:09:40;538.13;;;159.90;;
55314;SDS011;41619;42.816;23.226;2023-02-15T19:12:07;677.45;;;221.73;;
55314;SDS011;41619;42.816;23.226;2023-02-15T19:14:35;605.95;;;183.52;;
55314;SDS011;41619;42.816;23.226;2023-02-15T19:17:01;438.98;;;133.45;;
55314;SDS011;41619;42.816;23.226;2023-02-15T19:19:26;258.02;;;88.00;;
55314;SDS011;41619;42.816;23.226;2023-02-15T19:21:52;160.85;;;72.43;;
55314;SDS011;41619;42.816;23.226;2023-02-15T19:24:22;152.40;;;70.03;;
55314;SDS011;41619;42.816;23.226;2023-02-15T19:26:56;158.27;;;72.20;;
55314;SDS011;41619;42.816;23.226;2023-02-15T19:29:25;161.00;;;71.50;;
55314;SDS011;41619;42.816;23.226;2023-02-15T19:31:52;160.18;;;72.55;;
55314;SDS011;41619;42.816;23.226;2023-02-15T19:34:17;159.75;;;70.05;;
55314;SDS011;41619;42.816;23.226;2023-02-15T19:36:43;162.43;;;74.20;;
55314;SDS011;41619;42.816;23.226;2023-02-15T19:41:51;131.45;;;63.72;;
55314;SDS011;41619;42.816;23.226;2023-02-15T19:44:17;128.63;;;60.67;;
55314;SDS011;41619;42.816;23.226;2023-02-15T19:46:44;135.95;;;61.78;;
55314;SDS011;41619;42.816;23.226;2023-02-15T19:49:10;153.10;;;66.75;;
55314;SDS011;41619;42.816;23.226;2023-02-15T19:51:36;159.50;;;70.75;;
55314;SDS011;41619;42.816;23.226;2023-02-15T19:54:03;166.02;;;71.15;;
55314;SDS011;41619;42.816;23.226;2023-02-15T19:56:44;177.13;;;73.80;;
55314;SDS011;41619;42.816;23.226;2023-02-15T19:59:23;176.90;;;74.63;;
55314;SDS011;41619;42.816;23.226;2023-02-15T20:01:53;192.15;;;77.70;;
55314;SDS011;41619;42.816;23.226;2023-02-15T20:04:19;210.93;;;85.78;;
55314;SDS011;41619;42.816;23.226;2023-02-15T20:06:45;207.98;;;88.32;;
55314;SDS011;41619;42.816;23.226;2023-02-15T20:09:19;219.65;;;90.68;;
55314;SDS011;41619;42.816;23.226;2023-02-15T20:11:48;253.50;;;95.90;;
55314;SDS011;41619;42.816;23.226;2023-02-15T20:16:42;267.45;;;93.95;;
55314;SDS011;41619;42.816;23.226;2023-02-15T20:19:07;285.75;;;101.53;;
55314;SDS011;41619;42.816;23.226;2023-02-15T20:21:33;304.95;;;106.82;;
